ECGCM LELL-LIMC
Flight info
| Callsign | ECGCM |
|---|---|
| Flight time | 1h 8m |
| Altitude | 30000 |
| Route | SLL DCT SOSUR DCT MTG A6 CM DCT ASTIG |
| Aircraft | C750/M-SBDE3FGHRWXY/S |
Departure
| Time | 2026-05-05 18:57 |
|---|---|
| Airport | Sabadell Airfield (LELL) |
Arrival
| Time | 2026-05-05 20:05 |
|---|---|
| Airport | Milan Malpensa International Airport (LIMC) |
| Time | Latitude | Longitude | Altitude | Speed | Heading |
|---|---|---|---|---|---|
| 2026-05-05 18:30 | 41.52164 | 2.10815 | 480 ft | 0 kts | 36° |
| 2026-05-05 18:44 | 41.52163 | 2.10815 | 480 ft | 0 kts | 36° |
| 2026-05-05 18:44 | 41.52151 | 2.10803 | 477 ft | 4 kts | 7° |
| 2026-05-05 18:45 | 41.52146 | 2.10801 | 478 ft | 0 kts | 307° |
| 2026-05-05 18:47 | 41.52179 | 2.10738 | 477 ft | 18 kts | 304° |
| 2026-05-05 18:47 | 41.52204 | 2.10660 | 474 ft | 5 kts | 233° |
| 2026-05-05 18:48 | 41.52186 | 2.10658 | 472 ft | 0 kts | 150° |
| 2026-05-05 18:49 | 41.52174 | 2.10671 | 474 ft | 2 kts | 136° |
| 2026-05-05 18:49 | 41.52167 | 2.10683 | 474 ft | 6 kts | 128° |
| 2026-05-05 18:49 | 41.52126 | 2.10756 | 474 ft | 13 kts | 127° |
| 2026-05-05 18:49 | 41.52086 | 2.10826 | 474 ft | 0 kts | 126° |
| 2026-05-05 18:50 | 41.52066 | 2.10861 | 474 ft | 12 kts | 130° |
| 2026-05-05 18:51 | 41.52032 | 2.10820 | 474 ft | 13 kts | 303° |
| 2026-05-05 18:51 | 41.52125 | 2.10653 | 474 ft | 21 kts | 304° |
| 2026-05-05 18:51 | 41.52203 | 2.10513 | 474 ft | 23 kts | 306° |
| 2026-05-05 18:51 | 41.52311 | 2.10325 | 474 ft | 23 kts | 306° |
| 2026-05-05 18:52 | 41.52394 | 2.10181 | 474 ft | 16 kts | 307° |
| 2026-05-05 18:52 | 41.52427 | 2.10085 | 473 ft | 6 kts | 216° |
| 2026-05-05 18:52 | 41.52403 | 2.10059 | 473 ft | 0 kts | 216° |
| 2026-05-05 18:54 | 41.52389 | 2.10046 | 471 ft | 9 kts | 219° |
| 2026-05-05 18:54 | 41.52358 | 2.10033 | 473 ft | 0 kts | 131° |
| 2026-05-05 18:56 | 41.52268 | 2.10199 | 479 ft | 68 kts | 128° |
| 2026-05-05 18:56 | 41.51777 | 2.11062 | 557 ft | 142 kts | 126° |
| 2026-05-05 18:57 | 41.51118 | 2.12044 | 1219 ft | 148 kts | 132° |
| 2026-05-05 18:57 | 41.50378 | 2.13136 | 1683 ft | 173 kts | 133° |
| 2026-05-05 18:57 | 41.49533 | 2.14452 | 2011 ft | 204 kts | 132° |
| 2026-05-05 18:57 | 41.48530 | 2.15959 | 2380 ft | 227 kts | 137° |
| 2026-05-05 18:58 | 41.47094 | 2.16728 | 3004 ft | 224 kts | 182° |
| 2026-05-05 18:58 | 41.45719 | 2.16006 | 3681 ft | 210 kts | 225° |
| 2026-05-05 18:58 | 41.45098 | 2.14243 | 3974 ft | 216 kts | 265° |
| 2026-05-05 18:58 | 41.45272 | 2.12951 | 4007 ft | 220 kts | 294° |
| 2026-05-05 18:59 | 41.47927 | 2.09658 | 5582 ft | 253 kts | 336° |
| 2026-05-05 18:59 | 41.49754 | 2.09575 | 6171 ft | 276 kts | 11° |
| 2026-05-05 18:59 | 41.51424 | 2.10870 | 7137 ft | 285 kts | 44° |
| 2026-05-05 19:00 | 41.52496 | 2.13122 | 8172 ft | 290 kts | 62° |
| 2026-05-05 19:00 | 41.53329 | 2.15601 | 9228 ft | 295 kts | 65° |
| 2026-05-05 19:00 | 41.54210 | 2.18109 | 10074 ft | 302 kts | 62° |
| 2026-05-05 19:00 | 41.55203 | 2.20645 | 10475 ft | 325 kts | 61° |
| 2026-05-05 19:01 | 41.56297 | 2.23431 | 10643 ft | 352 kts | 62° |
| 2026-05-05 19:01 | 41.57427 | 2.26449 | 10994 ft | 368 kts | 63° |
| 2026-05-05 19:01 | 41.58562 | 2.29510 | 11852 ft | 369 kts | 63° |
| 2026-05-05 19:01 | 41.59731 | 2.32589 | 12568 ft | 374 kts | 62° |
| 2026-05-05 19:02 | 41.60917 | 2.35700 | 13306 ft | 378 kts | 63° |
| 2026-05-05 19:02 | 41.61705 | 2.37789 | 13789 ft | 381 kts | 63° |
| 2026-05-05 19:02 | 41.62894 | 2.40962 | 14416 ft | 385 kts | 63° |
| 2026-05-05 19:02 | 41.64106 | 2.44191 | 15052 ft | 389 kts | 63° |
| 2026-05-05 19:03 | 41.65332 | 2.47443 | 15678 ft | 394 kts | 64° |
| 2026-05-05 19:03 | 41.66570 | 2.50736 | 16324 ft | 398 kts | 64° |
| 2026-05-05 19:03 | 41.67818 | 2.54068 | 17000 ft | 403 kts | 64° |
| 2026-05-05 19:03 | 41.69079 | 2.57436 | 17686 ft | 407 kts | 65° |
| 2026-05-05 19:04 | 41.70361 | 2.60860 | 18348 ft | 412 kts | 65° |
| 2026-05-05 19:04 | 41.71637 | 2.64274 | 18898 ft | 419 kts | 65° |
| 2026-05-05 19:04 | 41.72948 | 2.67788 | 19453 ft | 425 kts | 65° |
| 2026-05-05 19:04 | 41.74276 | 2.71353 | 20046 ft | 431 kts | 65° |
| 2026-05-05 19:05 | 41.75626 | 2.74976 | 20625 ft | 438 kts | 65° |
| 2026-05-05 19:05 | 41.76991 | 2.78647 | 21191 ft | 444 kts | 65° |
| 2026-05-05 19:05 | 41.78378 | 2.82384 | 21766 ft | 450 kts | 65° |
| 2026-05-05 19:05 | 41.79781 | 2.86167 | 22339 ft | 456 kts | 66° |
| 2026-05-05 19:06 | 41.81207 | 2.90013 | 22878 ft | 463 kts | 66° |
| 2026-05-05 19:06 | 41.82643 | 2.93897 | 23446 ft | 468 kts | 66° |
| 2026-05-05 19:06 | 41.84099 | 2.97839 | 23881 ft | 475 kts | 66° |
| 2026-05-05 19:06 | 41.85572 | 3.01831 | 24368 ft | 480 kts | 66° |
| 2026-05-05 19:07 | 41.87064 | 3.05880 | 24819 ft | 486 kts | 66° |
| 2026-05-05 19:07 | 41.88569 | 3.09972 | 25301 ft | 491 kts | 66° |
| 2026-05-05 19:07 | 41.90083 | 3.14094 | 25763 ft | 496 kts | 66° |
| 2026-05-05 19:07 | 41.91597 | 3.18221 | 26206 ft | 501 kts | 66° |
| 2026-05-05 19:08 | 41.93142 | 3.22443 | 26674 ft | 506 kts | 66° |
| 2026-05-05 19:08 | 41.94707 | 3.26721 | 27144 ft | 511 kts | 66° |
| 2026-05-05 19:08 | 41.96281 | 3.31032 | 27607 ft | 517 kts | 66° |
| 2026-05-05 19:08 | 41.97869 | 3.35386 | 28064 ft | 522 kts | 66° |
| 2026-05-05 19:09 | 41.99473 | 3.39794 | 28522 ft | 528 kts | 66° |
| 2026-05-05 19:09 | 42.01089 | 3.44239 | 28985 ft | 532 kts | 66° |
| 2026-05-05 19:09 | 42.02723 | 3.48743 | 29444 ft | 537 kts | 66° |
| 2026-05-05 19:09 | 42.04368 | 3.53282 | 29882 ft | 542 kts | 66° |
| 2026-05-05 19:10 | 42.06039 | 3.57906 | 29885 ft | 556 kts | 66° |
| 2026-05-05 19:10 | 42.07725 | 3.62578 | 29886 ft | 569 kts | 66° |
| 2026-05-05 19:10 | 42.09473 | 3.67422 | 29891 ft | 581 kts | 66° |
| 2026-05-05 19:10 | 42.11248 | 3.72351 | 29891 ft | 590 kts | 66° |
| 2026-05-05 19:11 | 42.14867 | 3.82434 | 29898 ft | 603 kts | 66° |
| 2026-05-05 19:11 | 42.18522 | 3.92651 | 29897 ft | 606 kts | 66° |
| 2026-05-05 19:12 | 42.22173 | 4.02901 | 29888 ft | 607 kts | 66° |
| 2026-05-05 19:12 | 42.26002 | 4.13057 | 29815 ft | 609 kts | 57° |
| 2026-05-05 19:13 | 42.28783 | 4.17346 | 29862 ft | 605 kts | 44° |
| 2026-05-05 19:13 | 42.31901 | 4.21143 | 29873 ft | 604 kts | 36° |
| 2026-05-05 19:13 | 42.39053 | 4.26971 | 29878 ft | 597 kts | 20° |
| 2026-05-05 19:14 | 42.46873 | 4.30521 | 29902 ft | 592 kts | 11° |
| 2026-05-05 19:14 | 42.54769 | 4.33752 | 29896 ft | 592 kts | 12° |
| 2026-05-05 19:15 | 42.62668 | 4.36965 | 29899 ft | 592 kts | 12° |
| 2026-05-05 19:15 | 42.70550 | 4.40201 | 29903 ft | 591 kts | 12° |
| 2026-05-05 19:16 | 42.78378 | 4.43408 | 29902 ft | 591 kts | 12° |
| 2026-05-05 19:16 | 42.86262 | 4.46658 | 29901 ft | 592 kts | 13° |
| 2026-05-05 19:17 | 42.94154 | 4.49911 | 29906 ft | 592 kts | 13° |
| 2026-05-05 19:17 | 43.02051 | 4.53183 | 29909 ft | 591 kts | 13° |
| 2026-05-05 19:18 | 43.09883 | 4.56429 | 29913 ft | 591 kts | 13° |
| 2026-05-05 19:18 | 43.17760 | 4.59709 | 29910 ft | 590 kts | 13° |
| 2026-05-05 19:19 | 43.25614 | 4.62984 | 29916 ft | 590 kts | 13° |
| 2026-05-05 19:19 | 43.33461 | 4.66268 | 29914 ft | 589 kts | 13° |
| 2026-05-05 19:20 | 43.41299 | 4.69554 | 29916 ft | 587 kts | 13° |
| 2026-05-05 19:20 | 43.49054 | 4.72817 | 29923 ft | 586 kts | 14° |
| 2026-05-05 19:21 | 43.56851 | 4.76104 | 29917 ft | 585 kts | 14° |
| 2026-05-05 19:21 | 43.64631 | 4.79394 | 29915 ft | 584 kts | 14° |
| 2026-05-05 19:22 | 43.72394 | 4.82685 | 29915 ft | 583 kts | 14° |
| 2026-05-05 19:22 | 43.80099 | 4.86148 | 29882 ft | 584 kts | 20° |
| 2026-05-05 19:23 | 43.87125 | 4.91779 | 29903 ft | 586 kts | 37° |
| 2026-05-05 19:23 | 43.92884 | 4.99738 | 29903 ft | 585 kts | 53° |
| 2026-05-05 19:24 | 43.96965 | 5.09429 | 29913 ft | 579 kts | 69° |
| 2026-05-05 19:24 | 44.00255 | 5.19650 | 29914 ft | 580 kts | 69° |
| 2026-05-05 19:25 | 44.03556 | 5.29888 | 29908 ft | 580 kts | 69° |
| 2026-05-05 19:25 | 44.06824 | 5.40124 | 29907 ft | 578 kts | 69° |
| 2026-05-05 19:26 | 44.10067 | 5.50264 | 29913 ft | 578 kts | 69° |
| 2026-05-05 19:26 | 44.13320 | 5.60525 | 29913 ft | 579 kts | 69° |
| 2026-05-05 19:27 | 44.16578 | 5.70799 | 29910 ft | 578 kts | 69° |
| 2026-05-05 19:27 | 44.19795 | 5.81021 | 29920 ft | 580 kts | 69° |
| 2026-05-05 19:28 | 44.23039 | 5.91335 | 29927 ft | 581 kts | 69° |
| 2026-05-05 19:28 | 44.26270 | 6.01678 | 29941 ft | 583 kts | 69° |
| 2026-05-05 19:29 | 44.29507 | 6.12063 | 29926 ft | 582 kts | 69° |
| 2026-05-05 19:29 | 44.32710 | 6.22385 | 29926 ft | 582 kts | 69° |
| 2026-05-05 19:30 | 44.35920 | 6.32775 | 29939 ft | 583 kts | 69° |
| 2026-05-05 19:30 | 44.39132 | 6.43208 | 29942 ft | 585 kts | 70° |
| 2026-05-05 19:31 | 44.42340 | 6.53675 | 29945 ft | 585 kts | 70° |
| 2026-05-05 19:31 | 44.45544 | 6.64167 | 29937 ft | 587 kts | 70° |
| 2026-05-05 19:32 | 44.48745 | 6.74698 | 29936 ft | 588 kts | 70° |
| 2026-05-05 19:32 | 44.51933 | 6.85222 | 29957 ft | 585 kts | 70° |
| 2026-05-05 19:33 | 44.58306 | 7.06401 | 29952 ft | 581 kts | 70° |
| 2026-05-05 19:34 | 44.61442 | 7.16894 | 29962 ft | 585 kts | 70° |
| 2026-05-05 19:35 | 44.66155 | 7.32728 | 29952 ft | 586 kts | 70° |
| 2026-05-05 19:35 | 44.67720 | 7.38014 | 29149 ft | 583 kts | 70° |
| 2026-05-05 19:35 | 44.69261 | 7.43219 | 28399 ft | 573 kts | 70° |
| 2026-05-05 19:35 | 44.70776 | 7.48354 | 27647 ft | 564 kts | 70° |
| 2026-05-05 19:36 | 44.72271 | 7.53434 | 26908 ft | 556 kts | 70° |
| 2026-05-05 19:36 | 44.73734 | 7.58416 | 26181 ft | 547 kts | 70° |
| 2026-05-05 19:36 | 44.75180 | 7.63342 | 25466 ft | 539 kts | 70° |
| 2026-05-05 19:36 | 44.76577 | 7.68118 | 24769 ft | 531 kts | 70° |
| 2026-05-05 19:37 | 44.77971 | 7.72892 | 24071 ft | 523 kts | 70° |
| 2026-05-05 19:37 | 44.79342 | 7.77593 | 23362 ft | 515 kts | 70° |
| 2026-05-05 19:37 | 44.80693 | 7.82236 | 22666 ft | 504 kts | 70° |
| 2026-05-05 19:37 | 44.81978 | 7.86643 | 21983 ft | 454 kts | 70° |
| 2026-05-05 19:38 | 44.83120 | 7.90552 | 21410 ft | 406 kts | 70° |
| 2026-05-05 19:38 | 44.84140 | 7.94092 | 20972 ft | 386 kts | 71° |
| 2026-05-05 19:38 | 44.85152 | 7.97645 | 20419 ft | 388 kts | 71° |
| 2026-05-05 19:38 | 44.86155 | 8.01111 | 19934 ft | 376 kts | 70° |
| 2026-05-05 19:39 | 44.87135 | 8.04478 | 19483 ft | 367 kts | 71° |
| 2026-05-05 19:39 | 44.88089 | 8.07795 | 19022 ft | 364 kts | 71° |
| 2026-05-05 19:39 | 44.89033 | 8.11095 | 18542 ft | 361 kts | 71° |
| 2026-05-05 19:39 | 44.89958 | 8.14318 | 18058 ft | 358 kts | 71° |
| 2026-05-05 19:40 | 44.90889 | 8.17554 | 17582 ft | 354 kts | 70° |
| 2026-05-05 19:40 | 44.91973 | 8.20646 | 17019 ft | 354 kts | 55° |
| 2026-05-05 19:40 | 44.93772 | 8.22973 | 16443 ft | 349 kts | 36° |
| 2026-05-05 19:40 | 44.95744 | 8.24929 | 15962 ft | 344 kts | 34° |
| 2026-05-05 19:41 | 44.97643 | 8.26936 | 15334 ft | 339 kts | 37° |
| 2026-05-05 19:41 | 44.99478 | 8.29017 | 14725 ft | 335 kts | 38° |
| 2026-05-05 19:41 | 45.01297 | 8.31040 | 14142 ft | 330 kts | 37° |
| 2026-05-05 19:41 | 45.03116 | 8.32995 | 13533 ft | 326 kts | 36° |
| 2026-05-05 19:42 | 45.04902 | 8.34925 | 12877 ft | 321 kts | 37° |
| 2026-05-05 19:42 | 45.06063 | 8.36199 | 12601 ft | 314 kts | 37° |
| 2026-05-05 19:42 | 45.08595 | 8.37999 | 12032 ft | 310 kts | 15° |
| 2026-05-05 19:42 | 45.10689 | 8.38773 | 11715 ft | 310 kts | 12° |
| 2026-05-05 19:43 | 45.12074 | 8.39312 | 11515 ft | 311 kts | 15° |
| 2026-05-05 19:43 | 45.14797 | 8.40699 | 11113 ft | 312 kts | 20° |
| 2026-05-05 19:43 | 45.16150 | 8.41446 | 10917 ft | 311 kts | 20° |
| 2026-05-05 19:43 | 45.18123 | 8.42518 | 10580 ft | 296 kts | 25° |
| 2026-05-05 19:44 | 45.19636 | 8.44368 | 9913 ft | 274 kts | 58° |
| 2026-05-05 19:44 | 45.20085 | 8.46776 | 9932 ft | 253 kts | 89° |
| 2026-05-05 19:44 | 45.20081 | 8.49335 | 10077 ft | 264 kts | 93° |
| 2026-05-05 19:44 | 45.20049 | 8.51941 | 10022 ft | 265 kts | 93° |
| 2026-05-05 19:45 | 45.20018 | 8.54543 | 9989 ft | 262 kts | 93° |
| 2026-05-05 19:45 | 45.20241 | 8.57099 | 9901 ft | 266 kts | 69° |
| 2026-05-05 19:45 | 45.21423 | 8.59066 | 9866 ft | 268 kts | 33° |
| 2026-05-05 19:45 | 45.23156 | 8.59945 | 9945 ft | 266 kts | 6° |
| 2026-05-05 19:46 | 45.24962 | 8.59680 | 9895 ft | 258 kts | 339° |
| 2026-05-05 19:46 | 45.26462 | 8.58350 | 9267 ft | 256 kts | 314° |
| 2026-05-05 19:46 | 45.27316 | 8.57131 | 8991 ft | 252 kts | 311° |
| 2026-05-05 19:47 | 45.28588 | 8.55435 | 8483 ft | 252 kts | 321° |
| 2026-05-05 19:47 | 45.30269 | 8.54632 | 7914 ft | 259 kts | 354° |
| 2026-05-05 19:47 | 45.32020 | 8.55064 | 7467 ft | 258 kts | 24° |
| 2026-05-05 19:47 | 45.33419 | 8.56674 | 7106 ft | 263 kts | 54° |
| 2026-05-05 19:48 | 45.34090 | 8.58961 | 6795 ft | 253 kts | 79° |
| 2026-05-05 19:48 | 45.34414 | 8.61434 | 6511 ft | 255 kts | 83° |
| 2026-05-05 19:48 | 45.34224 | 8.63849 | 6072 ft | 233 kts | 113° |
| 2026-05-05 19:48 | 45.33385 | 8.65647 | 5979 ft | 215 kts | 137° |
| 2026-05-05 19:49 | 45.32140 | 8.66786 | 5985 ft | 213 kts | 160° |
| 2026-05-05 19:49 | 45.30706 | 8.67253 | 6005 ft | 210 kts | 171° |
| 2026-05-05 19:49 | 45.29260 | 8.67646 | 6002 ft | 211 kts | 170° |
| 2026-05-05 19:49 | 45.27817 | 8.68051 | 6000 ft | 211 kts | 170° |
| 2026-05-05 19:50 | 45.26379 | 8.68448 | 6005 ft | 210 kts | 170° |
| 2026-05-05 19:50 | 45.24942 | 8.68842 | 6003 ft | 210 kts | 170° |
| 2026-05-05 19:50 | 45.23508 | 8.69235 | 6000 ft | 210 kts | 170° |
| 2026-05-05 19:50 | 45.22070 | 8.69630 | 5993 ft | 210 kts | 170° |
| 2026-05-05 19:51 | 45.20657 | 8.70018 | 5742 ft | 207 kts | 170° |
| 2026-05-05 19:51 | 45.19230 | 8.70408 | 5315 ft | 209 kts | 170° |
| 2026-05-05 19:51 | 45.17794 | 8.70801 | 5020 ft | 214 kts | 170° |
| 2026-05-05 19:51 | 45.16376 | 8.71192 | 4961 ft | 205 kts | 169° |
| 2026-05-05 19:52 | 45.14985 | 8.71575 | 4960 ft | 203 kts | 170° |
| 2026-05-05 19:52 | 45.13596 | 8.71955 | 4964 ft | 204 kts | 170° |
| 2026-05-05 19:52 | 45.12195 | 8.72339 | 4969 ft | 206 kts | 170° |
| 2026-05-05 19:52 | 45.10788 | 8.72726 | 4975 ft | 206 kts | 170° |
| 2026-05-05 19:53 | 45.09381 | 8.73111 | 4970 ft | 207 kts | 170° |
| 2026-05-05 19:53 | 45.07994 | 8.73643 | 4918 ft | 209 kts | 153° |
| 2026-05-05 19:53 | 45.07118 | 8.75243 | 4874 ft | 214 kts | 108° |
| 2026-05-05 19:53 | 45.07237 | 8.77335 | 4926 ft | 216 kts | 76° |
| 2026-05-05 19:54 | 45.07740 | 8.79376 | 5000 ft | 223 kts | 73° |
| 2026-05-05 19:54 | 45.08241 | 8.81430 | 5008 ft | 224 kts | 73° |
| 2026-05-05 19:54 | 45.08750 | 8.83532 | 4994 ft | 226 kts | 73° |
| 2026-05-05 19:54 | 45.09262 | 8.85628 | 4959 ft | 223 kts | 73° |
| 2026-05-05 19:55 | 45.09768 | 8.87681 | 4960 ft | 220 kts | 73° |
| 2026-05-05 19:55 | 45.10301 | 8.89700 | 4942 ft | 221 kts | 65° |
| 2026-05-05 19:55 | 45.11447 | 8.91122 | 4852 ft | 225 kts | 20° |
| 2026-05-05 19:55 | 45.12974 | 8.91113 | 4866 ft | 221 kts | 342° |
| 2026-05-05 19:56 | 45.14396 | 8.90297 | 5005 ft | 223 kts | 335° |
| 2026-05-05 19:56 | 45.15878 | 8.89567 | 4995 ft | 227 kts | 342° |
| 2026-05-05 19:56 | 45.17406 | 8.88993 | 4987 ft | 227 kts | 344° |
| 2026-05-05 19:56 | 45.18926 | 8.88426 | 4977 ft | 225 kts | 343° |
| 2026-05-05 19:57 | 45.20434 | 8.87829 | 4976 ft | 225 kts | 343° |
| 2026-05-05 19:57 | 45.21941 | 8.87229 | 4978 ft | 225 kts | 343° |
| 2026-05-05 19:57 | 45.23448 | 8.86635 | 4971 ft | 224 kts | 343° |
| 2026-05-05 19:57 | 45.24952 | 8.86043 | 4970 ft | 224 kts | 343° |
| 2026-05-05 19:58 | 45.26457 | 8.85449 | 4989 ft | 224 kts | 343° |
| 2026-05-05 19:58 | 45.27942 | 8.84863 | 4990 ft | 224 kts | 343° |
| 2026-05-05 19:58 | 45.29443 | 8.84270 | 4986 ft | 224 kts | 343° |
| 2026-05-05 19:58 | 45.30946 | 8.83676 | 4989 ft | 224 kts | 343° |
| 2026-05-05 19:59 | 45.32447 | 8.83082 | 4996 ft | 224 kts | 343° |
| 2026-05-05 19:59 | 45.33946 | 8.82489 | 5000 ft | 223 kts | 343° |
| 2026-05-05 19:59 | 45.35438 | 8.81899 | 4992 ft | 222 kts | 343° |
| 2026-05-05 19:59 | 45.36926 | 8.81301 | 4996 ft | 221 kts | 342° |
| 2026-05-05 20:00 | 45.38357 | 8.80575 | 5056 ft | 222 kts | 340° |
| 2026-05-05 20:00 | 45.39821 | 8.79822 | 5016 ft | 223 kts | 340° |
| 2026-05-05 20:00 | 45.41352 | 8.79288 | 4807 ft | 232 kts | 349° |
| 2026-05-05 20:00 | 45.42935 | 8.78883 | 4458 ft | 221 kts | 349° |
| 2026-05-05 20:01 | 45.44316 | 8.78507 | 4202 ft | 187 kts | 349° |
| 2026-05-05 20:01 | 45.45604 | 8.78151 | 3945 ft | 189 kts | 349° |
| 2026-05-05 20:01 | 45.46894 | 8.77793 | 3708 ft | 189 kts | 348° |
| 2026-05-05 20:01 | 45.48188 | 8.77433 | 3446 ft | 191 kts | 349° |
| 2026-05-05 20:02 | 45.49467 | 8.77079 | 3189 ft | 187 kts | 349° |
| 2026-05-05 20:02 | 45.50741 | 8.76727 | 2930 ft | 181 kts | 350° |
| 2026-05-05 20:02 | 45.51930 | 8.76403 | 2690 ft | 166 kts | 351° |
| 2026-05-05 20:02 | 45.53053 | 8.76094 | 2477 ft | 171 kts | 351° |
| 2026-05-05 20:03 | 45.54239 | 8.75768 | 2252 ft | 175 kts | 351° |
| 2026-05-05 20:03 | 45.55439 | 8.75437 | 2015 ft | 177 kts | 351° |
| 2026-05-05 20:03 | 45.56642 | 8.75105 | 1782 ft | 175 kts | 351° |
| 2026-05-05 20:03 | 45.57838 | 8.74775 | 1517 ft | 170 kts | 350° |
| 2026-05-05 20:04 | 45.58904 | 8.74483 | 1284 ft | 143 kts | 349° |
| 2026-05-05 20:04 | 45.59813 | 8.74231 | 1077 ft | 125 kts | 349° |
| 2026-05-05 20:04 | 45.60636 | 8.74004 | 919 ft | 115 kts | 349° |
| 2026-05-05 20:04 | 45.61415 | 8.73795 | 802 ft | 115 kts | 348° |
| 2026-05-05 20:05 | 45.62168 | 8.73587 | 735 ft | 96 kts | 349° |
| 2026-05-05 20:05 | 45.62531 | 8.73390 | 735 ft | 31 kts | 304° |
| 2026-05-05 20:05 | 45.62630 | 8.73175 | 733 ft | 16 kts | 305° |
| 2026-05-05 20:05 | 45.62676 | 8.73081 | 733 ft | 0 kts | 303° |
| 2026-05-05 20:06 | 45.62685 | 8.73061 | 733 ft | 4 kts | 303° |
| 2026-05-05 20:06 | 45.62712 | 8.73003 | 733 ft | 9 kts | 303° |
| 2026-05-05 20:06 | 45.62755 | 8.72915 | 733 ft | 15 kts | 314° |
| 2026-05-05 20:06 | 45.62890 | 8.72855 | 733 ft | 26 kts | 347° |
| 2026-05-05 20:07 | 45.63063 | 8.72808 | 733 ft | 25 kts | 351° |
| 2026-05-05 20:07 | 45.63231 | 8.72764 | 733 ft | 24 kts | 349° |
| 2026-05-05 20:07 | 45.63385 | 8.72703 | 733 ft | 20 kts | 311° |
| 2026-05-05 20:07 | 45.63390 | 8.72526 | 733 ft | 19 kts | 258° |
| 2026-05-05 20:08 | 45.63364 | 8.72343 | 734 ft | 18 kts | 258° |
| 2026-05-05 20:08 | 45.63344 | 8.72175 | 736 ft | 16 kts | 259° |
| 2026-05-05 20:08 | 45.63329 | 8.72059 | 734 ft | 9 kts | 257° |
| 2026-05-05 20:08 | 45.63326 | 8.72036 | 734 ft | 1 kts | 259° |
| 2026-05-05 20:09 | 45.63300 | 8.71972 | 733 ft | 11 kts | 206° |
| 2026-05-05 20:09 | 45.63202 | 8.71994 | 733 ft | 19 kts | 169° |
| 2026-05-05 20:09 | 45.63075 | 8.72025 | 733 ft | 18 kts | 168° |
| 2026-05-05 20:09 | 45.62999 | 8.71957 | 733 ft | 14 kts | 240° |
| 2026-05-05 20:10 | 45.62965 | 8.71778 | 733 ft | 18 kts | 235° |
| 2026-05-05 20:10 | 45.62891 | 8.71763 | 733 ft | 0 kts | 174° |
| 2026-05-05 20:10 | 45.62847 | 8.71774 | 733 ft | 13 kts | 170° |
| 2026-05-05 20:10 | 45.62765 | 8.71805 | 733 ft | 13 kts | 137° |
| 2026-05-05 20:11 | 45.62769 | 8.71896 | 733 ft | 9 kts | 79° |
| 2026-05-05 20:11 | 45.62771 | 8.71911 | 733 ft | 0 kts | 78° |